Terminal Aerodrome Forecast
Issued by NWS

Home | Current Version | Previous Version | Text Only | Print | Product List | Glossary On
Versions: 1 2 3 4 5 6 7 8 9 10 11 12 13 14 15 16 17 18 19 20 21 22 23
000
FTUS42 KMHX 042358
TAFISO
TAF
KISO 042358Z 0500/0524 21010KT P6SM SCT050
     FM050400 21008KT 3SM BR BKN010
     FM050600 22006KT 2SM BR BKN007
     FM051200 04011KT P6SM -RA BKN010
     FM051500 03013G19KT 5SM -RA OVC007
      AMD LTD TO CLD VIS AND WIND=

USA.gov is the U.S. government's official web portal to all federal, state and local government web resources and services.